Time;durP1;ratioP1;P1;durP2;ratioP2;P2;SDS_P1;SDS_P2;PMS_P1;PMS_P2;Temp;Humidity;BMP_temperature;BMP_pressure;BME280_temperature;BME280_humidity;BME280_pressure;Samples;Min_cycle;Max_cycle;Signal;HPM_P1;HPM_P2
2023/03/08 00:00:44;;;;;;;1.02;0.17;;;18.80;57.70;;;;;;5084148;28;20049;-77
2023/03/08 00:03:14;;;;;;;1.27;0.20;;;18.90;57.70;;;;;;5074157;28;20057;-77
2023/03/08 00:05:41;;;;;;;0.55;0.10;;;19.00;57.50;;;;;;5075053;28;20386;-77
2023/03/08 00:08:08;;;;;;;1.10;0.10;;;19.00;57.40;;;;;;5082094;28;20045;-77
2023/03/08 00:10:35;;;;;;;0.95;0.10;;;19.10;57.30;;;;;;5050291;28;20052;-77
2023/03/08 00:13:03;;;;;;;0.82;0.20;;;19.10;57.10;;;;;;5048820;28;20064;-77
2023/03/08 00:15:30;;;;;;;0.57;0.15;;;19.20;57.10;;;;;;5050380;28;20045;-77
2023/03/08 00:17:57;;;;;;;1.02;0.22;;;19.30;57.10;;;;;;5050262;28;20053;-77
2023/03/08 00:20:24;;;;;;;0.93;0.20;;;19.20;56.90;;;;;;5049853;28;20065;-77
2023/03/08 00:22:51;;;;;;;1.17;0.10;;;19.30;57.00;;;;;;5048465;28;20542;-77
2023/03/08 00:25:18;;;;;;;0.73;0.10;;;19.30;57.00;;;;;;5065683;28;20068;-77
2023/03/08 00:27:45;;;;;;;1.70;0.25;;;19.20;57.00;;;;;;5068193;28;20615;-77
2023/03/08 00:30:15;;;;;;;0.70;0.10;;;19.20;57.70;;;;;;5070365;28;20055;-77
2023/03/08 00:32:42;;;;;;;1.58;0.30;;;19.20;57.10;;;;;;5063533;28;20052;-77
2023/03/08 00:35:09;;;;;;;0.68;0.10;;;19.20;57.20;;;;;;5068018;28;20577;-76
2023/03/08 00:37:36;;;;;;;0.65;0.10;;;19.10;57.10;;;;;;5068210;28;20094;-77
2023/03/08 00:40:04;;;;;;;0.75;0.13;;;19.10;57.30;;;;;;5050154;28;20175;-77
2023/03/08 00:42:31;;;;;;;1.48;0.20;;;19.00;57.20;;;;;;5049600;28;20483;-77
2023/03/08 00:44:58;;;;;;;1.10;0.30;;;19.10;57.40;;;;;;5049656;28;20053;-77
2023/03/08 00:47:27;;;;;;;1.13;0.10;;;19.00;57.40;;;;;;5048583;28;20143;-77
2023/03/08 00:49:53;;;;;;;0.77;0.10;;;18.90;57.40;;;;;;5050782;28;20064;-77
2023/03/08 00:52:20;;;;;;;0.45;0.10;;;18.90;57.40;;;;;;5090185;28;20044;-77
2023/03/08 00:54:47;;;;;;;1.10;0.10;;;18.80;57.40;;;;;;5091615;28;20520;-77
2023/03/08 00:57:15;;;;;;;0.63;0.10;;;18.80;57.50;;;;;;5080667;28;20505;-77
2023/03/08 00:59:42;;;;;;;1.00;0.10;;;18.80;57.60;;;;;;5073987;28;20079;-77
2023/03/08 01:02:09;;;;;;;1.33;0.20;;;18.80;57.60;;;;;;5071953;28;20056;-77
2023/03/08 01:04:37;;;;;;;1.45;0.20;;;18.70;57.60;;;;;;5080567;28;20052;-77
2023/03/08 01:07:04;;;;;;;1.00;0.40;;;18.70;57.60;;;;;;5083881;28;20052;-78
2023/03/08 01:09:31;;;;;;;1.35;0.20;;;18.70;57.70;;;;;;5053692;28;20071;-77
2023/03/08 01:11:58;;;;;;;1.73;0.10;;;18.60;57.70;;;;;;5052315;28;20053;-77
2023/03/08 01:14:25;;;;;;;0.90;0.10;;;18.50;57.80;;;;;;5063573;28;20059;-77
2023/03/08 01:16:51;;;;;;;0.55;0.17;;;18.50;57.90;;;;;;5072431;28;20079;-77
2023/03/08 01:19:18;;;;;;;1.23;0.20;;;18.50;57.90;;;;;;5071681;28;20497;-77
2023/03/08 01:21:47;;;;;;;0.55;0.10;;;18.50;58.00;;;;;;5072360;28;20071;-77
2023/03/08 01:24:14;;;;;;;0.50;0.10;;;18.40;57.90;;;;;;5072127;28;20052;-77
2023/03/08 01:26:41;;;;;;;1.35;0.20;;;18.40;57.90;;;;;;5069827;28;20398;-77
2023/03/08 01:29:07;;;;;;;0.95;0.10;;;18.50;58.00;;;;;;5069599;28;20055;-76
2023/03/08 01:31:34;;;;;;;0.70;0.10;;;18.40;57.80;;;;;;5069882;28;20060;-77
2023/03/08 01:34:01;;;;;;;0.73;0.03;;;18.50;57.90;;;;;;5071458;28;20052;-77
2023/03/08 01:36:28;;;;;;;0.60;0.10;;;18.40;57.70;;;;;;5071947;28;20059;-77
2023/03/08 01:38:59;;;;;;;0.77;0.10;;;18.50;57.70;;;;;;5053207;28;20609;-77
2023/03/08 01:41:28;;;;;;;1.38;0.17;;;18.50;57.70;;;;;;5062090;28;20059;-77
2023/03/08 01:43:56;;;;;;;0.90;0.10;;;18.50;57.70;;;;;;5071387;28;20048;-77
2023/03/08 01:46:26;;;;;;;0.52;0.00;;;18.50;57.60;;;;;;5072237;28;20060;-77
2023/03/08 01:48:58;;;;;;;0.80;0.30;;;18.50;58.40;;;;;;5072152;28;20056;-76
2023/03/08 01:51:31;;;;;;;0.52;0.10;;;18.50;57.60;;;;;;5071205;28;20520;-77
2023/03/08 01:54:03;;;;;;;1.25;0.10;;;18.60;57.60;;;;;;5066555;28;20079;-77
2023/03/08 01:56:30;;;;;;;1.60;0.15;;;18.50;57.50;;;;;;5070700;28;20053;-77
2023/03/08 01:58:58;;;;;;;1.20;0.52;;;18.60;57.50;;;;;;5069175;28;20048;-77
2023/03/08 02:01:25;;;;;;;0.70;0.10;;;18.70;57.40;;;;;;5071852;28;20047;-76
2023/03/08 02:03:53;;;;;;;0.70;0.20;;;18.70;57.20;;;;;;5070633;28;20122;-77
2023/03/08 02:06:21;;;;;;;0.90;0.00;;;18.80;57.20;;;;;;5067827;28;20056;-77
2023/03/08 02:08:48;;;;;;;1.13;0.17;;;18.90;57.00;;;;;;5070192;28;20075;-77
2023/03/08 02:11:18;;;;;;;0.82;0.10;;;18.90;56.90;;;;;;5066914;28;20064;-76
2023/03/08 02:13:46;;;;;;;0.50;0.10;;;19.00;56.80;;;;;;5067022;28;20490;-76
2023/03/08 02:16:14;;;;;;;1.05;0.20;;;19.10;57.30;;;;;;5067590;28;20048;-76
2023/03/08 02:18:52;;;;;;;0.65;0.10;;;19.20;56.50;;;;;;5068204;28;20139;-77
2023/03/08 02:21:19;;;;;;;0.80;0.10;;;19.30;56.40;;;;;;5067663;28;20053;-77
2023/03/08 02:23:48;;;;;;;1.10;0.10;;;19.30;56.90;;;;;;5052666;28;20052;-77
2023/03/08 02:26:15;;;;;;;0.52;0.10;;;19.30;56.20;;;;;;5066599;28;20052;-77
2023/03/08 02:28:42;;;;;;;0.47;0.10;;;19.30;56.10;;;;;;5050699;28;20542;-76
2023/03/08 02:31:10;;;;;;;0.55;0.10;;;19.30;56.10;;;;;;5059112;28;20051;-77
2023/03/08 02:33:37;;;;;;;1.40;0.30;;;19.30;56.20;;;;;;5072124;28;20049;-77
2023/03/08 02:36:07;;;;;;;0.57;0.35;;;19.30;56.20;;;;;;5071811;28;20052;-77
2023/03/08 02:38:34;;;;;;;;;;;19.30;56.30;;;;;;5072157;28;20091;-77
2023/03/08 02:41:02;;;;;;;0.60;0.10;;;19.20;56.20;;;;;;5072072;28;19928;-77
2023/03/08 02:43:29;;;;;;;0.70;0.20;;;19.20;56.30;;;;;;5069918;28;20044;-77
2023/03/08 02:45:56;;;;;;;1.00;0.20;;;19.20;56.50;;;;;;5071058;28;20049;-77
2023/03/08 02:48:23;;;;;;;0.70;0.30;;;19.10;57.10;;;;;;5067691;28;20053;-77
2023/03/08 02:50:50;;;;;;;0.68;0.10;;;19.10;56.50;;;;;;5065708;28;20056;-77
2023/03/08 02:53:17;;;;;;;0.45;0.10;;;19.10;56.60;;;;;;5071737;28;20048;-76
2023/03/08 02:55:44;;;;;;;0.45;0.10;;;19.00;56.60;;;;;;5070565;28;20052;-77
2023/03/08 02:58:12;;;;;;;0.57;0.20;;;19.00;56.70;;;;;;5070384;28;20056;-77
2023/03/08 03:00:39;;;;;;;0.65;0.10;;;18.90;56.70;;;;;;5071608;28;20048;-77
2023/03/08 03:03:06;;;;;;;0.95;0.10;;;18.90;56.80;;;;;;5069452;28;20056;-77
2023/03/08 03:05:33;;;;;;;0.63;0.20;;;18.80;56.80;;;;;;5071346;28;20044;-77
2023/03/08 03:08:00;;;;;;;0.93;0.13;;;18.80;56.90;;;;;;5078832;28;20040;-77
2023/03/08 03:10:27;;;;;;;0.50;0.10;;;18.80;56.90;;;;;;5059893;28;20064;-77
2023/03/08 03:12:54;;;;;;;0.60;0.10;;;18.70;56.90;;;;;;5049930;28;20489;-77
2023/03/08 03:15:23;;;;;;;0.50;0.17;;;18.70;57.00;;;;;;5050987;28;20053;-77
2023/03/08 03:17:50;;;;;;;0.95;0.10;;;18.60;57.00;;;;;;5048840;28;20064;-77
2023/03/08 03:20:17;;;;;;;0.57;0.10;;;18.60;57.10;;;;;;5049842;28;20055;-77
2023/03/08 03:22:45;;;;;;;1.00;0.13;;;18.60;57.20;;;;;;5050825;28;20501;-77
2023/03/08 03:25:13;;;;;;;0.85;0.10;;;18.50;57.20;;;;;;5049375;28;20446;-77
2023/03/08 03:27:40;;;;;;;1.05;0.20;;;18.50;57.20;;;;;;5050728;28;20049;-77
2023/03/08 03:30:09;;;;;;;0.57;0.20;;;18.50;57.20;;;;;;5049515;28;20053;-77
2023/03/08 03:32:38;;;;;;;0.40;0.00;;;18.50;57.30;;;;;;5068354;28;20045;-77
2023/03/08 03:35:05;;;;;;;0.43;0.10;;;18.40;57.20;;;;;;5071032;28;20101;-77
2023/03/08 03:37:34;;;;;;;0.40;0.08;;;18.50;57.30;;;;;;5070807;28;20044;-77
2023/03/08 03:40:01;;;;;;;0.93;0.20;;;18.50;57.90;;;;;;5069888;28;20048;-77
2023/03/08 03:42:28;;;;;;;0.70;0.20;;;18.50;57.90;;;;;;5070631;28;20051;-77
2023/03/08 03:44:55;;;;;;;0.52;0.10;;;18.50;57.10;;;;;;5069145;28;20098;-77
2023/03/08 03:47:22;;;;;;;0.98;0.10;;;18.50;57.00;;;;;;5070701;28;20052;-77
2023/03/08 03:49:50;;;;;;;1.02;0.10;;;18.50;57.00;;;;;;5070174;28;20056;-77
2023/03/08 03:52:17;;;;;;;0.73;0.15;;;18.50;57.00;;;;;;5069147;28;20186;-77
2023/03/08 03:54:44;;;;;;;0.73;0.10;;;18.50;57.10;;;;;;5067968;28;20052;-77
2023/03/08 03:57:10;;;;;;;0.52;0.10;;;18.50;57.00;;;;;;5070620;28;20045;-77
2023/03/08 03:59:37;;;;;;;0.50;0.10;;;18.50;56.90;;;;;;5068782;28;20412;-77
2023/03/08 04:02:04;;;;;;;0.68;0.40;;;18.60;56.90;;;;;;5048944;28;20060;-77
2023/03/08 04:04:31;;;;;;;0.73;0.20;;;18.60;56.80;;;;;;5055824;28;20047;-77
2023/03/08 04:07:00;;;;;;;0.68;0.10;;;18.70;56.80;;;;;;5070430;28;20060;-77
2023/03/08 04:09:26;;;;;;;0.40;0.10;;;18.70;56.70;;;;;;5089540;28;20051;-77
2023/03/08 04:11:53;;;;;;;0.85;0.20;;;18.80;56.50;;;;;;5090447;28;20051;-77
2023/03/08 04:14:20;;;;;;;0.88;0.10;;;18.90;56.50;;;;;;5090185;28;20059;-77
2023/03/08 04:16:47;;;;;;;0.47;0.10;;;19.00;57.00;;;;;;5090387;28;20056;-77
2023/03/08 04:19:14;;;;;;;0.52;0.10;;;19.00;56.90;;;;;;5080373;28;20049;-77
2023/03/08 04:21:41;;;;;;;0.30;0.08;;;19.10;56.10;;;;;;5068668;28;20056;-77
2023/03/08 04:24:09;;;;;;;0.73;0.10;;;19.20;56.10;;;;;;5069127;28;20055;-77
2023/03/08 04:26:36;;;;;;;0.80;0.10;;;19.20;55.90;;;;;;5051421;28;20057;-77
2023/03/08 04:29:05;;;;;;;0.75;0.10;;;19.30;55.90;;;;;;5067511;28;20114;-77
2023/03/08 04:31:35;;;;;;;0.63;0.20;;;19.30;55.80;;;;;;5067685;28;20055;-77
2023/03/08 04:34:03;;;;;;;0.88;0.00;;;19.30;55.80;;;;;;5089158;28;20056;-77
2023/03/08 04:36:30;;;;;;;0.40;0.10;;;19.30;55.80;;;;;;5073018;28;20655;-77
2023/03/08 04:38:58;;;;;;;0.80;0.13;;;19.30;55.80;;;;;;5068585;28;20048;-77
2023/03/08 04:41:26;;;;;;;0.40;0.10;;;19.20;55.80;;;;;;5070321;28;20049;-77
2023/03/08 04:43:55;;;;;;;0.57;0.25;;;19.30;55.90;;;;;;5069070;28;20120;-77
2023/03/08 04:46:24;;;;;;;0.88;0.20;;;19.20;55.90;;;;;;5049309;28;20505;-77
2023/03/08 04:48:52;;;;;;;0.75;0.13;;;19.20;56.00;;;;;;5084560;28;20063;-77
2023/03/08 04:51:20;;;;;;;0.80;0.20;;;19.10;56.10;;;;;;5069023;28;20048;-77
2023/03/08 04:53:47;;;;;;;0.30;0.10;;;19.10;56.10;;;;;;5070016;28;20443;-77
2023/03/08 04:56:16;;;;;;;0.55;0.10;;;19.10;56.20;;;;;;5069818;28;20048;-77
2023/03/08 04:58:44;;;;;;;0.90;0.10;;;19.00;56.20;;;;;;5070834;28;20049;-77
2023/03/08 05:01:13;;;;;;;0.80;0.10;;;19.00;56.30;;;;;;5088737;28;20059;-77
2023/03/08 05:03:40;;;;;;;0.60;0.10;;;18.90;56.40;;;;;;5062590;28;20476;-77
2023/03/08 05:06:09;;;;;;;0.38;0.03;;;18.90;56.40;;;;;;5049822;28;20053;-77
2023/03/08 05:08:36;;;;;;;0.75;0.20;;;18.80;56.40;;;;;;5049766;28;20628;-77
2023/03/08 05:11:04;;;;;;;1.10;0.17;;;18.80;56.50;;;;;;5067398;28;20051;-77
2023/03/08 05:13:34;;;;;;;0.63;0.10;;;18.80;56.50;;;;;;5068929;28;20106;-77
2023/03/08 05:16:03;;;;;;;0.70;0.10;;;18.70;56.50;;;;;;5069569;28;20527;-77
2023/03/08 05:18:30;;;;;;;0.73;0.10;;;18.70;56.60;;;;;;5069352;28;20057;-77
2023/03/08 05:20:59;;;;;;;0.50;0.10;;;18.70;56.70;;;;;;5069687;28;20075;-77
2023/03/08 05:23:27;;;;;;;0.40;0.10;;;18.60;56.70;;;;;;5070297;28;20560;-77
2023/03/08 05:25:55;;;;;;;0.50;0.10;;;18.60;56.80;;;;;;5088353;28;20048;-77
2023/03/08 05:28:23;;;;;;;0.73;0.10;;;18.60;56.90;;;;;;5068968;28;20056;-77
2023/03/08 05:30:51;;;;;;;0.73;0.20;;;18.50;57.00;;;;;;5060329;28;20053;-77
2023/03/08 05:33:19;;;;;;;0.80;0.30;;;18.50;57.00;;;;;;5049487;28;20068;-77
2023/03/08 05:35:53;;;;;;;0.52;0.13;;;18.50;57.00;;;;;;5049599;28;20068;-77
2023/03/08 05:38:20;;;;;;;0.50;0.20;;;18.40;57.00;;;;;;5063572;28;20068;-77
2023/03/08 05:40:47;;;;;;;0.60;0.22;;;18.40;56.90;;;;;;5069667;28;20056;-76
2023/03/08 05:43:14;;;;;;;0.50;0.05;;;18.40;57.10;;;;;;5072738;28;20055;-76
2023/03/08 05:45:41;;;;;;;0.52;0.30;;;18.50;56.90;;;;;;5073002;28;20055;-77
2023/03/08 05:48:08;;;;;;;0.52;0.30;;;18.40;57.00;;;;;;5073006;28;20056;-77
2023/03/08 05:50:39;;;;;;;0.20;0.03;;;18.40;56.90;;;;;;5071635;28;20521;-77
2023/03/08 05:53:06;;;;;;;0.40;0.20;;;18.40;56.90;;;;;;5072134;28;20053;-77
2023/03/08 05:55:33;;;;;;;0.80;0.10;;;18.40;57.00;;;;;;5071290;28;20056;-77
2023/03/08 05:58:00;;;;;;;0.93;0.10;;;18.50;57.00;;;;;;5079375;28;20830;-77
2023/03/08 06:00:27;;;;;;;0.50;0.20;;;18.50;57.70;;;;;;5091709;28;20063;-77
2023/03/08 06:02:54;;;;;;;0.57;0.10;;;18.50;56.90;;;;;;5091175;28;20044;-76
2023/03/08 06:05:21;;;;;;;0.60;0.03;;;18.60;56.90;;;;;;5091593;28;20051;-77
2023/03/08 06:07:50;;;;;;;0.50;0.10;;;18.60;56.80;;;;;;5073605;28;20060;-77
2023/03/08 06:10:17;;;;;;;0.50;0.10;;;18.60;56.70;;;;;;5068644;28;20394;-76
2023/03/08 06:12:44;;;;;;;0.40;0.10;;;18.70;56.60;;;;;;5079045;28;20066;-76
2023/03/08 06:15:12;;;;;;;0.60;0.10;;;18.70;56.50;;;;;;5074186;28;20048;-76
2023/03/08 06:17:39;;;;;;;0.50;0.10;;;18.80;56.40;;;;;;5086051;28;20408;-76
2023/03/08 06:20:06;;;;;;;0.50;0.10;;;18.90;56.30;;;;;;5070372;28;20428;-76
2023/03/08 06:22:34;;;;;;;0.38;0.00;;;18.90;56.20;;;;;;5069865;28;20102;-76
2023/03/08 06:25:02;;;;;;;0.50;0.10;;;19.00;56.10;;;;;;5070788;28;20793;-77
2023/03/08 06:27:29;;;;;;;0.55;0.10;;;19.10;56.00;;;;;;5069897;28;20055;-76
2023/03/08 06:29:56;;;;;;;0.52;0.38;;;19.10;55.80;;;;;;5070934;28;20542;-77
2023/03/08 06:32:23;;;;;;;0.55;0.05;;;19.10;55.80;;;;;;5070883;28;20060;-76
2023/03/08 06:34:50;;;;;;;0.43;0.10;;;19.20;55.90;;;;;;5072714;28;20425;-76
2023/03/08 06:37:17;;;;;;;0.70;0.10;;;19.10;55.80;;;;;;5061856;28;20048;-77
2023/03/08 06:39:44;;;;;;;0.55;0.10;;;19.10;55.80;;;;;;5056373;28;20112;-77
2023/03/08 06:42:12;;;;;;;0.57;0.10;;;19.10;55.90;;;;;;5068158;28;20067;-77
2023/03/08 06:44:39;;;;;;;0.30;0.10;;;19.00;55.90;;;;;;5068092;28;20075;-77
2023/03/08 06:47:06;;;;;;;0.57;0.10;;;19.00;56.00;;;;;;5071864;28;20053;-77
2023/03/08 06:49:34;;;;;;;0.47;0.10;;;19.00;56.10;;;;;;5063261;28;20041;-77
2023/03/08 06:52:01;;;;;;;0.50;0.00;;;19.00;56.20;;;;;;5060460;28;20056;-77
2023/03/08 06:54:28;;;;;;;0.57;0.20;;;18.90;56.20;;;;;;5071365;28;20520;-70
2023/03/08 06:56:55;;;;;;;0.35;0.10;;;18.90;56.20;;;;;;5073025;28;20048;-68
2023/03/08 06:59:23;;;;;;;0.57;0.03;;;18.80;56.30;;;;;;5071649;28;20454;-67
2023/03/08 07:01:50;;;;;;;0.52;0.08;;;18.80;57.10;;;;;;5071147;28;20489;-66
2023/03/08 07:04:17;;;;;;;0.63;0.10;;;18.80;56.60;;;;;;5070159;28;20052;-67
2023/03/08 07:06:45;;;;;;;0.65;0.10;;;18.80;56.60;;;;;;5067774;28;20052;-67
2023/03/08 07:09:12;;;;;;;0.43;0.10;;;18.80;56.70;;;;;;5070268;28;20110;-68
2023/03/08 07:11:39;;;;;;;0.50;0.20;;;18.70;56.80;;;;;;5071487;28;20472;-68
2023/03/08 07:14:06;;;;;;;1.45;0.30;;;18.70;56.90;;;;;;5070925;28;20053;-68
2023/03/08 07:16:34;;;;;;;0.98;0.20;;;18.70;57.00;;;;;;5070295;28;20056;-67
2023/03/08 07:19:02;;;;;;;0.60;0.10;;;18.70;57.00;;;;;;5069796;28;20056;-68
2023/03/08 07:21:29;;;;;;;1.17;0.10;;;18.60;57.00;;;;;;5071037;28;20112;-78
2023/03/08 07:23:56;;;;;;;1.88;0.10;;;18.60;57.10;;;;;;5068660;28;20048;-78
2023/03/08 07:26:23;;;;;;;0.50;0.10;;;18.60;57.20;;;;;;5059456;28;20057;-78
2023/03/08 07:28:51;;;;;;;0.77;0.20;;;18.60;57.20;;;;;;5050857;28;20056;-78
2023/03/08 07:31:18;;;;;;;2.53;0.20;;;18.60;57.30;;;;;;5050879;28;20106;-78
2023/03/08 07:33:47;;;;;;;0.60;0.10;;;18.50;57.30;;;;;;5050869;28;20073;-78
2023/03/08 07:36:14;;;;;;;0.60;0.10;;;18.50;57.30;;;;;;5049595;28;20490;-78
2023/03/08 07:38:41;;;;;;;0.80;0.40;;;18.50;57.30;;;;;;5051196;28;20084;-78
2023/03/08 07:41:08;;;;;;;0.30;0.10;;;18.60;57.30;;;;;;5051150;28;20061;-78
2023/03/08 07:43:35;;;;;;;0.50;0.13;;;18.60;57.20;;;;;;5050758;28;20041;-78
2023/03/08 07:46:03;;;;;;;0.77;0.10;;;18.60;57.20;;;;;;5050925;28;20056;-78
2023/03/08 07:48:31;;;;;;;1.50;0.20;;;18.60;57.10;;;;;;5048948;28;20524;-78
2023/03/08 07:51:04;;;;;;;0.20;0.00;;;18.70;57.10;;;;;;5049446;28;20051;-77
2023/03/08 07:53:31;;;;;;;0.47;0.17;;;18.70;57.10;;;;;;5049542;28;20044;-77
2023/03/08 07:55:59;;;;;;;0.57;0.05;;;18.70;56.90;;;;;;5073372;28;20068;-78
2023/03/08 07:58:27;;;;;;;1.10;0.10;;;18.80;56.90;;;;;;5089683;28;20051;-77
2023/03/08 08:00:54;;;;;;;1.00;0.35;;;18.90;56.80;;;;;;5091573;28;20048;-78
2023/03/08 08:03:21;;;;;;;0.60;0.10;;;18.90;56.70;;;;;;5068957;28;20053;-77
2023/03/08 08:05:48;;;;;;;0.50;0.17;;;19.00;57.40;;;;;;5051292;28;20504;-78
2023/03/08 08:08:16;;;;;;;1.35;0.10;;;19.10;57.30;;;;;;5051027;28;20053;-78
2023/03/08 08:10:43;;;;;;;1.20;0.10;;;19.20;56.50;;;;;;5052144;28;20063;-78
2023/03/08 08:13:11;;;;;;;0.45;0.10;;;19.30;56.40;;;;;;5062284;28;20061;-77
2023/03/08 08:15:38;;;;;;;0.40;0.10;;;19.30;56.30;;;;;;5050124;28;20049;-77
2023/03/08 08:18:05;;;;;;;0.50;0.10;;;19.40;56.20;;;;;;5053921;28;20056;-77
2023/03/08 08:20:32;;;;;;;0.52;0.10;;;19.40;56.10;;;;;;5050278;28;20375;-78
2023/03/08 08:22:59;;;;;;;0.65;0.10;;;19.50;56.10;;;;;;5048522;28;20056;-78
2023/03/08 08:25:27;;;;;;;0.75;0.10;;;19.40;56.00;;;;;;5048695;28;20045;-77
2023/03/08 08:27:54;;;;;;;0.50;0.17;;;19.50;56.10;;;;;;5050232;28;20053;-77
2023/03/08 08:30:21;;;;;;;1.13;0.03;;;19.40;56.10;;;;;;5055221;28;20052;-78
2023/03/08 08:32:48;;;;;;;0.30;0.05;;;19.40;56.10;;;;;;5070064;28;20057;-77
2023/03/08 08:35:15;;;;;;;0.43;0.05;;;19.40;56.10;;;;;;5065371;28;20056;-77
2023/03/08 08:37:42;;;;;;;0.60;0.20;;;19.40;56.30;;;;;;5068762;28;20051;-78
2023/03/08 08:40:10;;;;;;;0.55;0.10;;;19.30;56.20;;;;;;5070189;28;20542;-78
2023/03/08 08:42:39;;;;;;;1.42;0.20;;;19.30;56.30;;;;;;5069593;28;20489;-78
2023/03/08 08:45:08;;;;;;;0.60;0.30;;;19.30;56.30;;;;;;5069464;28;20456;-77
2023/03/08 08:47:35;;;;;;;0.40;0.10;;;19.20;56.40;;;;;;5068241;28;20394;-77
2023/03/08 08:50:02;;;;;;;0.50;0.10;;;19.20;56.50;;;;;;5069705;28;20470;-78
2023/03/08 08:52:29;;;;;;;0.70;0.10;;;19.20;56.60;;;;;;5062027;28;20110;-77
2023/03/08 08:54:56;;;;;;;0.35;0.08;;;19.20;56.60;;;;;;5048320;28;20529;-77
2023/03/08 08:57:23;;;;;;;0.68;0.13;;;19.10;56.60;;;;;;5048189;28;20457;-77
2023/03/08 08:59:52;;;;;;;0.75;0.10;;;19.10;56.70;;;;;;5049553;28;20057;-78
2023/03/08 09:02:19;;;;;;;0.40;0.10;;;19.00;56.70;;;;;;5068458;28;20049;-77
2023/03/08 09:04:45;;;;;;;0.60;0.10;;;19.10;56.80;;;;;;5068632;28;20052;-78
2023/03/08 09:07:12;;;;;;;0.93;0.40;;;19.00;56.80;;;;;;5069804;28;20060;-78
2023/03/08 09:09:39;;;;;;;0.25;0.03;;;19.00;56.90;;;;;;5065274;28;20052;-78
2023/03/08 09:12:07;;;;;;;0.63;0.15;;;19.00;56.90;;;;;;5049631;28;20049;-78
2023/03/08 09:14:34;;;;;;;0.40;0.10;;;19.00;57.00;;;;;;5050771;28;20060;-78
2023/03/08 09:17:06;;;;;;;0.43;0.10;;;18.90;57.00;;;;;;5073189;28;20052;-78
2023/03/08 09:19:35;;;;;;;0.52;0.10;;;18.90;57.00;;;;;;5073523;28;20048;-78
2023/03/08 09:22:02;;;;;;;0.40;0.10;;;18.90;57.00;;;;;;5073437;28;20053;-78
2023/03/08 09:24:29;;;;;;;1.10;0.20;;;18.80;57.10;;;;;;5073261;28;20163;-78
2023/03/08 09:26:56;;;;;;;0.77;0.10;;;18.80;57.10;;;;;;5071862;28;20493;-78
2023/03/08 09:29:23;;;;;;;0.52;0.10;;;18.80;57.10;;;;;;5069877;28;20056;-78
2023/03/08 09:31:50;;;;;;;0.55;0.10;;;18.80;57.20;;;;;;5071898;28;20052;-78
2023/03/08 09:34:18;;;;;;;0.45;0.15;;;18.80;57.20;;;;;;5072247;28;20058;-78
2023/03/08 09:36:45;;;;;;;0.82;0.10;;;18.70;57.20;;;;;;5072863;28;20052;-78
2023/03/08 09:39:13;;;;;;;0.38;0.20;;;18.70;57.20;;;;;;5072985;28;20056;-78
2023/03/08 09:41:52;;;;;;;0.98;0.13;;;18.70;57.30;;;;;;5071904;28;20151;-78
2023/03/08 09:44:55;;;;;;;1.60;0.10;;;18.70;57.30;;;;;;5067717;28;20064;-78
2023/03/08 09:47:31;;;;;;;1.17;0.20;;;18.70;57.30;;;;;;5052918;28;20055;-77
2023/03/08 09:50:08;;;;;;;0.40;0.10;;;18.70;57.30;;;;;;5060001;28;20055;-78
2023/03/08 09:52:39;;;;;;;0.73;0.13;;;18.70;58.00;;;;;;5077659;28;20048;-78
2023/03/08 09:55:15;;;;;;;0.47;0.10;;;18.80;57.40;;;;;;5085296;28;20045;-78
2023/03/08 09:57:47;;;;;;;0.80;0.30;;;18.80;57.30;;;;;;5071672;28;20052;-78
2023/03/08 10:00:21;;;;;;;1.08;0.10;;;18.80;57.30;;;;;;5072653;28;20056;-78
2023/03/08 10:02:54;;;;;;;0.77;0.10;;;18.90;57.30;;;;;;5071370;28;20041;-78
2023/03/08 10:05:27;;;;;;;0.47;0.10;;;18.90;57.20;;;;;;5071612;28;20057;-78
2023/03/08 10:08:01;;;;;;;0.55;0.13;;;19.00;57.20;;;;;;5071105;28;20063;-78
2023/03/08 10:10:42;;;;;;;0.50;0.10;;;19.00;57.10;;;;;;5070598;28;20413;-78
2023/03/08 10:13:33;;;;;;;1.25;0.45;;;19.10;57.00;;;;;;5070699;28;20048;-78
2023/03/08 10:16:10;;;;;;;0.40;0.00;;;19.20;56.90;;;;;;5071201;28;20048;-78
2023/03/08 10:18:44;;;;;;;1.10;0.10;;;19.20;56.80;;;;;;5071144;28;20053;-78
2023/03/08 10:21:16;;;;;;;0.60;0.20;;;19.30;56.90;;;;;;5070860;28;20044;-78
2023/03/08 10:23:46;;;;;;;0.65;0.25;;;19.20;56.80;;;;;;5072061;28;20105;-78
2023/03/08 10:26:14;;;;;;;0.35;0.05;;;19.30;56.80;;;;;;5053052;28;20493;-78
2023/03/08 10:28:41;;;;;;;0.88;0.20;;;19.20;56.90;;;;;;5050297;28;20052;-78
2023/03/08 10:31:20;;;;;;;0.55;0.10;;;19.30;56.90;;;;;;5051043;28;20041;-78
2023/03/08 10:33:50;;;;;;;0.50;0.10;;;19.30;56.90;;;;;;5051979;28;20045;-78
2023/03/08 10:36:21;;;;;;;0.65;0.10;;;19.20;56.90;;;;;;5052199;28;20175;-78
2023/03/08 10:38:59;;;;;;;0.90;0.10;;;19.20;57.00;;;;;;5050628;28;20493;-78
2023/03/08 10:41:31;;;;;;;0.38;0.10;;;19.20;57.70;;;;;;5051864;28;20048;-78
2023/03/08 10:43:59;;;;;;;0.60;0.17;;;19.20;57.80;;;;;;5050532;28;20052;-80
2023/03/08 10:46:29;;;;;;;0.35;0.10;;;19.20;57.10;;;;;;5050344;28;20053;-79
2023/03/08 10:49:07;;;;;;;0.73;0.20;;;19.20;57.20;;;;;;5051320;28;20089;-79
2023/03/08 10:51:36;;;;;;;0.80;0.13;;;19.20;57.20;;;;;;5066319;28;20474;-68
2023/03/08 10:54:04;;;;;;;0.30;0.10;;;19.20;57.30;;;;;;5070936;28;20389;-69
2023/03/08 10:56:37;;;;;;;0.40;0.10;;;19.10;57.40;;;;;;5071707;28;20059;-68
2023/03/08 10:59:06;;;;;;;1.58;0.15;;;19.20;57.40;;;;;;5069891;28;20051;-68
2023/03/08 11:01:35;;;;;;;0.68;0.10;;;19.20;57.50;;;;;;5068539;28;20048;-69
2023/03/08 11:04:05;;;;;;;0.57;0.10;;;19.20;57.50;;;;;;5070158;28;20102;-69
2023/03/08 11:06:33;;;;;;;;;;;19.20;57.60;;;;;;5070445;28;20451;-69
2023/03/08 11:09:04;;;;;;;0.50;0.15;;;19.20;57.70;;;;;;5069868;28;19920;-70
2023/03/08 11:11:41;;;;;;;0.70;0.20;;;19.20;57.60;;;;;;5069815;28;20048;-71
2023/03/08 11:14:11;;;;;;;0.73;0.28;;;19.20;57.70;;;;;;5065415;28;20128;-69
2023/03/08 11:17:03;;;;;;;0.60;0.15;;;19.20;57.80;;;;;;5049803;28;20045;-79
2023/03/08 11:19:39;;;;;;;1.27;0.10;;;19.30;57.90;;;;;;5059652;28;20053;-78
2023/03/08 11:22:18;;;;;;;0.52;0.10;;;19.20;57.80;;;;;;5046763;28;20056;-80
2023/03/08 11:25:00;;;;;;;1.10;0.35;;;19.20;57.90;;;;;;5049453;28;20080;-79
2023/03/08 11:27:45;;;;;;;0.40;0.10;;;19.20;58.00;;;;;;5048401;28;20055;-78
2023/03/08 11:30:21;;;;;;;0.40;0.05;;;19.20;58.80;;;;;;5037589;28;20662;-79
2023/03/08 11:33:14;;;;;;;1.05;0.15;;;19.20;58.10;;;;;;5039415;28;20586;-78
2023/03/08 11:35:47;;;;;;;1.05;0.00;;;19.30;58.20;;;;;;5048212;28;20468;-79
2023/03/08 11:38:18;;;;;;;0.57;0.10;;;19.20;58.20;;;;;;5042902;28;20632;-79
2023/03/08 11:40:58;;;;;;;1.75;0.30;;;19.20;58.30;;;;;;5044805;28;20045;-80
2023/03/08 11:43:40;;;;;;;1.08;0.10;;;19.20;58.50;;;;;;5047253;28;20048;-80
2023/03/08 11:46:16;;;;;;;0.65;0.10;;;19.20;58.50;;;;;;5043029;28;20047;-79
2023/03/08 11:49:08;;;;;;;0.50;0.17;;;19.20;58.50;;;;;;5056731;28;20061;-77
2023/03/08 11:51:43;;;;;;;0.85;0.10;;;19.20;59.30;;;;;;5048011;28;20057;-78
2023/03/08 11:54:18;;;;;;;0.47;0.10;;;19.20;58.60;;;;;;5045920;28;20060;-78
2023/03/08 11:56:51;;;;;;;1.02;0.10;;;19.20;58.60;;;;;;5038717;28;20056;-78
2023/03/08 11:59:27;;;;;;;0.85;0.10;;;19.20;58.70;;;;;;5065238;28;20563;-74
2023/03/08 12:01:59;;;;;;;1.00;0.13;;;19.20;58.70;;;;;;5077939;28;20512;-73
2023/03/08 12:04:32;;;;;;;0.68;0.00;;;19.20;58.70;;;;;;5059327;28;20048;-72
2023/03/08 12:07:05;;;;;;;0.28;0.10;;;19.20;59.40;;;;;;5068188;28;20040;-72
2023/03/08 12:09:37;;;;;;;0.77;0.10;;;19.20;58.80;;;;;;5070339;28;20063;-72
2023/03/08 12:12:14;;;;;;;0.30;0.10;;;19.20;58.80;;;;;;5069303;28;20060;-71
2023/03/08 12:14:49;;;;;;;0.50;0.10;;;19.20;58.90;;;;;;5064071;28;20053;-71
2023/03/08 12:17:21;;;;;;;0.73;0.10;;;19.20;59.00;;;;;;5066992;28;20049;-72
2023/03/08 12:19:50;;;;;;;1.10;0.20;;;19.10;58.90;;;;;;5068595;28;20055;-72
2023/03/08 12:22:38;;;;;;;0.65;0.10;;;19.10;58.90;;;;;;5070321;28;20114;-72
2023/03/08 12:25:13;;;;;;;0.52;0.20;;;19.20;59.10;;;;;;5055581;28;20060;-74
2023/03/08 12:27:47;;;;;;;0.47;0.10;;;19.10;59.10;;;;;;5054664;28;20048;-76
2023/03/08 12:30:23;;;;;;;1.35;0.20;;;19.20;59.10;;;;;;5056430;28;20057;-76
2023/03/08 12:32:53;;;;;;;0.57;0.10;;;19.20;59.10;;;;;;5062743;28;20135;-76
2023/03/08 12:35:29;;;;;;;0.45;0.10;;;19.10;59.10;;;;;;5058751;28;20551;-76
2023/03/08 12:37:58;;;;;;;0.70;0.20;;;19.10;59.20;;;;;;5063637;28;20048;-76
2023/03/08 12:40:40;;;;;;;2.22;0.20;;;19.10;59.10;;;;;;5068260;28;20037;-76
2023/03/08 12:43:12;;;;;;;1.45;0.20;;;19.10;59.20;;;;;;5057775;28;20081;-76
2023/03/08 12:45:40;;;;;;;0.40;0.10;;;19.10;59.20;;;;;;5054163;28;20052;-76
2023/03/08 12:48:26;;;;;;;0.32;0.00;;;19.10;59.20;;;;;;5059334;28;20056;-77
2023/03/08 12:51:01;;;;;;;0.93;0.10;;;19.10;59.30;;;;;;5065862;28;20056;-76
2023/03/08 12:53:38;;;;;;;0.50;0.32;;;19.10;59.30;;;;;;5074131;28;20052;-76
2023/03/08 12:56:16;;;;;;;0.63;0.10;;;19.10;59.30;;;;;;5071418;28;20049;-76
2023/03/08 12:58:51;;;;;;;0.45;0.10;;;19.10;59.40;;;;;;5072679;28;20052;-76